createdAt,value
2022-11-29T00:01:51.719Z,6.43
2022-11-29T00:04:21.258Z,6.77
2022-11-29T00:06:49.337Z,6.53
2022-11-29T00:09:43.271Z,6.60
2022-11-29T00:12:15.840Z,7.00
2022-11-29T00:14:44.272Z,6.80
2022-11-29T00:17:12.660Z,7.17
2022-11-29T00:19:42.155Z,6.13
2022-11-29T00:22:10.477Z,6.60
2022-11-29T00:24:38.596Z,6.10
2022-11-29T00:27:06.714Z,6.23
2022-11-29T00:29:34.857Z,6.37
2022-11-29T00:32:03.136Z,6.17
2022-11-29T00:34:31.287Z,6.57
2022-11-29T00:37:00.778Z,5.60
2022-11-29T00:39:28.909Z,6.10
2022-11-29T00:41:57.142Z,6.70
2022-11-29T00:44:25.291Z,6.00
2022-11-29T00:46:53.351Z,6.50
2022-11-29T00:49:21.499Z,6.10
2022-11-29T00:51:49.699Z,7.00
2022-11-29T00:54:19.247Z,6.37
2022-11-29T00:56:47.325Z,6.23
2022-11-29T00:59:15.444Z,5.93
2022-11-29T01:01:43.580Z,6.40
2022-11-29T01:04:11.724Z,5.60
2022-11-29T01:06:39.942Z,5.83
2022-11-29T01:09:08.013Z,5.80
2022-11-29T01:11:37.481Z,6.33
2022-11-29T01:14:05.951Z,6.00
2022-11-29T01:16:34.437Z,6.07
2022-11-29T01:19:02.703Z,6.10
2022-11-29T01:21:31.402Z,6.53
2022-11-29T01:24:06.231Z,5.83
2022-11-29T01:26:34.497Z,6.17
2022-11-29T01:29:04.072Z,6.60
2022-11-29T01:31:35.968Z,5.83
2022-11-29T01:34:06.800Z,7.20
2022-11-29T01:36:35.539Z,6.47
2022-11-29T01:39:06.818Z,6.20
2022-11-29T01:41:37.706Z,6.57
2022-11-29T01:44:47.283Z,6.57
2022-11-29T01:47:15.497Z,6.00
2022-11-29T01:49:48.449Z,5.90
2022-11-29T01:52:22.026Z,6.77
2022-11-29T01:54:56.442Z,6.80
2022-11-29T01:57:25.095Z,6.23
2022-11-29T02:00:01.623Z,6.63
2022-11-29T02:02:39.463Z,6.43
2022-11-29T02:05:09.077Z,6.50
2022-11-29T02:07:38.458Z,5.13
2022-11-29T02:13:01.279Z,5.73
2022-11-29T02:15:45.218Z,5.53
2022-11-29T02:18:17.807Z,6.20
2022-11-29T02:21:20.781Z,5.70
2022-11-29T02:24:42.502Z,5.43
2022-11-29T02:27:48.542Z,5.03
2022-11-29T02:30:24.979Z,5.87
2022-11-29T02:33:28.340Z,5.20
2022-11-29T02:36:20.048Z,5.93
2022-11-29T02:39:30.000Z,5.23
2022-11-29T02:42:23.413Z,6.07
2022-11-29T02:45:10.976Z,4.97
2022-11-29T02:47:56.156Z,5.00
2022-11-29T02:50:39.684Z,5.60
2022-11-29T02:53:15.140Z,5.10
2022-11-29T02:55:52.354Z,5.00
2022-11-29T02:58:28.693Z,5.37
2022-11-29T03:01:07.287Z,5.30
2022-11-29T03:03:43.459Z,6.07
2022-11-29T03:06:24.589Z,5.13
2022-11-29T03:09:00.425Z,5.27
2022-11-29T03:11:39.057Z,5.37
2022-11-29T03:14:21.795Z,5.23
2022-11-29T03:17:04.894Z,5.00
2022-11-29T03:19:51.805Z,5.30
2022-11-29T03:22:37.519Z,5.43
2022-11-29T03:25:14.111Z,4.90
2022-11-29T03:27:49.134Z,5.20
2022-11-29T03:30:20.398Z,5.10
2022-11-29T03:33:00.124Z,4.93
2022-11-29T03:35:38.466Z,4.70
2022-11-29T03:38:20.174Z,4.67
2022-11-29T03:40:56.901Z,4.27
2022-11-29T03:43:33.382Z,4.43
2022-11-29T03:46:06.999Z,4.50
2022-11-29T03:48:40.841Z,5.13
2022-11-29T03:51:15.015Z,4.60
2022-11-29T03:53:52.681Z,4.10
2022-11-29T03:56:31.232Z,4.67
2022-11-29T03:59:14.560Z,3.63
2022-11-29T04:02:40.709Z,3.03
2022-11-29T04:05:38.499Z,2.70
2022-11-29T04:08:49.298Z,2.30
2022-11-29T04:12:00.382Z,2.20
2022-11-29T04:14:46.895Z,2.20
2022-11-29T04:17:56.957Z,1.77
2022-11-29T04:21:03.036Z,2.03
2022-11-29T04:24:27.508Z,1.83
2022-11-29T04:27:48.632Z,1.83
2022-11-29T04:30:22.514Z,2.57
2022-11-29T04:33:38.984Z,2.20
2022-11-29T04:36:47.451Z,1.60
2022-11-29T04:39:51.578Z,1.47
2022-11-29T04:43:05.261Z,1.70
2022-11-29T04:46:15.533Z,1.40
2022-11-29T04:49:15.763Z,1.00
2022-11-29T04:52:07.861Z,1.00
2022-11-29T04:54:43.836Z,1.00
2022-11-29T04:57:23.079Z,1.10
2022-11-29T05:00:00.262Z,0.90
2022-11-29T05:02:41.600Z,1.10
2022-11-29T05:05:28.236Z,1.03
2022-11-29T05:08:13.883Z,0.77
2022-11-29T05:10:52.445Z,1.17
2022-11-29T05:13:29.862Z,0.80
2022-11-29T05:16:32.684Z,0.83
2022-11-29T05:19:35.822Z,1.03
2022-11-29T05:22:22.058Z,0.70
2022-11-29T05:25:00.533Z,0.80
2022-11-29T05:27:42.984Z,0.90
2022-11-29T05:30:14.816Z,0.87
2022-11-29T05:32:57.544Z,0.70
2022-11-29T05:35:52.906Z,0.70
2022-11-29T05:38:45.995Z,0.57
2022-11-29T05:41:33.951Z,0.50
2022-11-29T05:44:11.958Z,0.80
2022-11-29T05:46:52.302Z,0.57
2022-11-29T05:49:32.238Z,0.80
2022-11-29T05:52:21.469Z,0.73
2022-11-29T05:55:07.728Z,0.80
2022-11-29T05:57:44.902Z,0.70
2022-11-29T06:00:16.806Z,0.87
2022-11-29T06:02:59.176Z,0.70
2022-11-29T06:05:36.799Z,0.80
2022-11-29T06:08:11.552Z,0.80
2022-11-29T06:10:53.505Z,0.90
2022-11-29T06:13:37.976Z,0.70
2022-11-29T06:16:38.933Z,0.70
2022-11-29T06:19:56.839Z,0.90
2022-11-29T06:22:56.845Z,0.83
2022-11-29T06:25:47.021Z,1.20
2022-11-29T06:28:28.960Z,1.00
2022-11-29T06:31:07.912Z,1.40
2022-11-29T06:33:46.655Z,1.00
2022-11-29T06:36:20.709Z,1.07
2022-11-29T06:38:50.862Z,1.20
2022-11-29T06:41:23.872Z,1.33
2022-11-29T06:43:53.296Z,1.50
2022-11-29T06:46:36.793Z,1.10
2022-11-29T06:49:12.863Z,1.40
2022-11-29T06:51:55.572Z,1.10
2022-11-29T06:54:47.558Z,1.27
2022-11-29T06:57:25.245Z,0.90
2022-11-29T07:00:06.490Z,1.10
2022-11-29T07:03:13.369Z,1.10
2022-11-29T07:05:42.396Z,1.20
2022-11-29T07:08:17.284Z,1.30
2022-11-29T07:10:59.168Z,1.00
2022-11-29T07:13:30.994Z,1.50
2022-11-29T07:16:15.661Z,1.40
2022-11-29T07:18:55.078Z,1.60
2022-11-29T07:21:46.078Z,1.20
2022-11-29T07:24:40.344Z,1.40
2022-11-29T07:27:21.895Z,1.40
2022-11-29T07:30:10.028Z,1.60
2022-11-29T07:33:00.330Z,2.10
2022-11-29T07:35:39.801Z,2.03
2022-11-29T07:38:19.255Z,1.80
2022-11-29T07:40:56.637Z,1.67
2022-11-29T07:43:40.823Z,1.30
2022-11-29T07:46:09.135Z,1.57
2022-11-29T07:48:37.320Z,1.03
2022-11-29T07:51:14.999Z,1.50
2022-11-29T07:53:45.694Z,1.20
2022-11-29T07:56:16.248Z,1.27
2022-11-29T07:58:45.999Z,1.77
2022-11-29T08:01:15.978Z,1.87
2022-11-29T08:03:44.243Z,1.77
2022-11-29T08:06:12.450Z,2.07
2022-11-29T08:08:43.916Z,1.50
2022-11-29T08:11:13.348Z,2.17
2022-11-29T08:13:41.686Z,1.60
2022-11-29T08:16:18.234Z,2.00
2022-11-29T08:18:47.039Z,1.90
2022-11-29T08:21:18.391Z,2.10
2022-11-29T08:23:46.714Z,2.20
2022-11-29T08:26:16.720Z,2.20
2022-11-29T08:28:47.388Z,2.07
2022-11-29T08:31:17.032Z,2.23
2022-11-29T08:33:46.083Z,2.23
2022-11-29T08:36:17.255Z,1.90
2022-11-29T08:38:50.390Z,2.10
2022-11-29T08:41:21.084Z,1.80
2022-11-29T08:43:49.557Z,2.30
2022-11-29T08:46:19.509Z,2.40
2022-11-29T08:48:48.568Z,2.00
2022-11-29T08:51:18.508Z,2.40
2022-11-29T08:53:51.550Z,2.40
2022-11-29T08:57:10.143Z,1.83
2022-11-29T08:59:12.214Z,1.90
2022-11-29T09:01:48.018Z,1.83
2022-11-29T09:04:18.621Z,2.00
2022-11-29T09:06:49.754Z,2.03
2022-11-29T09:09:18.803Z,2.00
2022-11-29T09:11:49.528Z,1.97
2022-11-29T09:14:19.331Z,1.90
2022-11-29T09:16:49.187Z,1.80
2022-11-29T09:19:18.243Z,2.23
2022-11-29T09:21:46.699Z,3.07
2022-11-29T09:24:16.170Z,2.80
2022-11-29T09:26:48.213Z,2.73
2022-11-29T09:29:22.392Z,2.80
2022-11-29T09:31:52.440Z,2.53
2022-11-29T09:34:26.003Z,2.63
2022-11-29T09:36:54.467Z,2.43
2022-11-29T09:39:23.288Z,2.80
2022-11-29T09:42:15.923Z,2.60
2022-11-29T09:45:01.854Z,3.23
2022-11-29T09:47:57.893Z,2.97
2022-11-29T09:50:34.305Z,3.00
2022-11-29T09:53:23.990Z,3.10
2022-11-29T09:56:13.304Z,3.80
2022-11-29T09:58:48.735Z,3.80
2022-11-29T10:01:24.324Z,3.80
2022-11-29T10:03:58.254Z,3.70
2022-11-29T10:06:32.138Z,3.67
2022-11-29T10:09:05.387Z,4.40
2022-11-29T10:11:39.717Z,4.00
2022-11-29T10:14:16.424Z,3.97
2022-11-29T10:16:50.918Z,3.90
2022-11-29T10:19:29.469Z,3.87
2022-11-29T10:22:06.158Z,4.17
2022-11-29T10:24:37.338Z,3.70
2022-11-29T10:27:13.737Z,4.27
2022-11-29T10:29:42.356Z,3.87
2022-11-29T10:32:17.874Z,4.17
2022-11-29T10:34:49.703Z,3.73
2022-11-29T10:37:20.453Z,3.03
2022-11-29T10:39:52.242Z,4.40
2022-11-29T10:42:40.869Z,3.33
2022-11-29T10:45:18.233Z,4.23
2022-11-29T10:47:49.087Z,3.43
2022-11-29T10:50:26.322Z,3.63
2022-11-29T10:53:04.618Z,3.67
2022-11-29T10:55:41.277Z,4.00
2022-11-29T10:58:17.388Z,4.23
2022-11-29T11:00:55.452Z,4.80
2022-11-29T11:03:32.979Z,4.47
2022-11-29T11:06:14.347Z,3.90
2022-11-29T11:08:49.035Z,3.67
2022-11-29T11:11:26.913Z,3.80
2022-11-29T11:14:08.389Z,3.47
2022-11-29T11:16:37.838Z,3.30
2022-11-29T11:19:32.382Z,3.60
2022-11-29T11:22:05.202Z,3.90
2022-11-29T11:24:37.611Z,3.67
2022-11-29T11:27:06.367Z,3.40
2022-11-29T11:29:43.703Z,3.20
2022-11-29T11:32:22.056Z,3.17
2022-11-29T11:35:22.057Z,3.33
2022-11-29T11:37:58.645Z,2.90
2022-11-29T11:40:30.527Z,3.13
2022-11-29T11:43:04.183Z,3.23
2022-11-29T11:45:37.191Z,2.67
2022-11-29T11:48:14.568Z,3.00
2022-11-29T11:50:51.329Z,3.30
2022-11-29T11:53:26.394Z,3.37
2022-11-29T11:56:03.536Z,2.77
2022-11-29T11:58:33.920Z,3.10
2022-11-29T12:01:24.447Z,3.00
2022-11-29T12:04:01.755Z,3.10
2022-11-29T12:06:48.059Z,2.70
2022-11-29T12:09:31.571Z,3.67
2022-11-29T12:12:12.853Z,3.50
2022-11-29T12:14:54.710Z,5.00
2022-11-29T12:17:34.235Z,5.60
2022-11-29T12:20:21.258Z,4.50
2022-11-29T12:23:25.375Z,3.87
2022-11-29T12:25:59.884Z,3.33
2022-11-29T12:28:34.435Z,4.40
2022-11-29T12:31:42.261Z,3.30
2022-11-29T12:34:29.590Z,3.40
2022-11-29T12:37:07.007Z,3.43
2022-11-29T12:39:50.895Z,3.30
2022-11-29T12:42:41.005Z,3.73
2022-11-29T12:45:31.169Z,4.00
2022-11-29T12:48:15.227Z,3.57
2022-11-29T12:50:58.410Z,4.40
2022-11-29T12:53:57.843Z,5.50
2022-11-29T12:56:33.579Z,7.00
2022-11-29T12:59:23.579Z,9.00
2022-11-29T13:02:17.162Z,6.90
2022-11-29T13:04:59.538Z,8.23
2022-11-29T13:07:40.965Z,6.80
2022-11-29T13:10:25.384Z,5.03
2022-11-29T13:12:57.179Z,5.20
2022-11-29T13:15:36.733Z,5.27
2022-11-29T13:18:15.431Z,6.70
2022-11-29T13:20:50.962Z,6.00
2022-11-29T13:23:45.989Z,4.57
2022-11-29T13:26:18.589Z,3.87
2022-11-29T13:28:47.616Z,4.10
2022-11-29T13:32:31.226Z,4.30
2022-11-29T14:02:44.994Z,3.53
2022-11-29T14:05:27.502Z,3.50
2022-11-29T14:08:55.161Z,3.57
2022-11-29T14:11:26.570Z,3.50
2022-11-29T14:14:03.285Z,3.90
2022-11-29T14:16:38.561Z,3.80
2022-11-29T14:19:24.702Z,4.00
2022-11-29T14:22:31.344Z,3.70
2022-11-29T14:25:49.579Z,3.97
2022-11-29T14:28:33.112Z,3.50
2022-11-29T14:31:02.602Z,3.33
2022-11-29T14:34:04.253Z,3.90
2022-11-29T14:36:51.110Z,3.47
2022-11-29T14:39:35.077Z,3.30
2022-11-29T14:42:14.591Z,3.33
2022-11-29T14:44:50.893Z,4.00
2022-11-29T14:47:26.269Z,3.30
2022-11-29T14:49:59.899Z,3.43
2022-11-29T14:52:33.415Z,4.00
2022-11-29T14:55:09.674Z,3.70
2022-11-29T14:58:17.302Z,4.03
2022-11-29T15:01:08.168Z,3.77
2022-11-29T15:03:49.615Z,3.83
2022-11-29T15:06:41.654Z,3.83
2022-11-29T15:09:20.159Z,4.20
2022-11-29T15:11:54.653Z,4.00
2022-11-29T15:14:36.528Z,4.23
2022-11-29T15:17:24.424Z,3.40
2022-11-29T15:20:26.002Z,4.13
2022-11-29T15:22:55.640Z,3.83
2022-11-29T15:25:28.335Z,4.00
2022-11-29T15:27:58.723Z,4.00
2022-11-29T15:30:34.763Z,4.17
2022-11-29T15:33:07.043Z,4.10
2022-11-29T15:35:37.185Z,4.43
2022-11-29T15:38:05.552Z,4.30
2022-11-29T15:40:37.112Z,3.83
2022-11-29T15:43:21.470Z,3.60
2022-11-29T15:45:52.002Z,3.87
2022-11-29T15:48:23.746Z,3.90
2022-11-29T15:51:03.304Z,3.73
2022-11-29T15:53:38.522Z,4.40
2022-11-29T15:56:15.546Z,5.60
2022-11-29T15:58:45.918Z,5.40
2022-11-29T16:01:21.890Z,4.57
2022-11-29T16:03:54.428Z,4.90
2022-11-29T16:06:29.582Z,4.70
2022-11-29T16:08:57.853Z,4.13
2022-11-29T16:11:29.751Z,4.90
2022-11-29T16:14:22.030Z,4.10
2022-11-29T16:16:53.458Z,4.23
2022-11-29T16:19:30.447Z,3.80
2022-11-29T16:22:22.539Z,4.43
2022-11-29T16:25:05.694Z,4.83
2022-11-29T16:27:37.206Z,5.53
2022-11-29T16:30:07.382Z,5.33
2022-11-29T16:32:39.249Z,5.80
2022-11-29T16:35:20.231Z,5.43
2022-11-29T16:37:49.133Z,5.33
2022-11-29T16:40:23.937Z,6.90
2022-11-29T16:43:20.397Z,6.97
2022-11-29T16:45:48.723Z,5.93
2022-11-29T16:48:31.251Z,5.27
2022-11-29T16:51:24.924Z,4.73
2022-11-29T16:53:55.672Z,5.00
2022-11-29T16:56:34.434Z,6.87
2022-11-29T16:59:25.277Z,5.40
2022-11-29T17:01:53.145Z,5.90
2022-11-29T17:04:24.484Z,6.07
2022-11-29T17:06:54.506Z,5.57
2022-11-29T17:09:26.776Z,5.90
2022-11-29T17:11:55.679Z,5.57
2022-11-29T17:14:25.111Z,5.80
2022-11-29T17:16:53.312Z,6.30
2022-11-29T17:19:23.632Z,6.23
2022-11-29T17:21:52.830Z,5.50
2022-11-29T17:24:23.661Z,5.53
2022-11-29T17:26:52.478Z,5.80
2022-11-29T17:29:20.609Z,5.97
2022-11-29T17:31:50.517Z,5.97
2022-11-29T17:34:18.870Z,6.93
2022-11-29T17:36:47.522Z,7.00
2022-11-29T17:39:19.954Z,7.13
2022-11-29T17:41:48.506Z,7.30
2022-11-29T17:44:16.624Z,7.37
2022-11-29T17:46:45.230Z,6.40
2022-11-29T17:49:14.777Z,6.97
2022-11-29T17:51:52.630Z,7.03
2022-11-29T17:54:21.924Z,7.27
2022-11-29T17:56:50.559Z,7.33
2022-11-29T17:59:19.059Z,8.00
2022-11-29T18:01:47.976Z,7.00
2022-11-29T18:04:17.607Z,7.10
2022-11-29T18:06:49.706Z,6.87
2022-11-29T18:09:20.230Z,7.60
2022-11-29T18:11:50.622Z,7.63
2022-11-29T18:14:22.618Z,7.40
2022-11-29T18:16:51.203Z,7.90
2022-11-29T18:19:23.338Z,7.80
2022-11-29T18:21:52.552Z,7.97
2022-11-29T18:24:20.892Z,8.23
2022-11-29T18:26:49.309Z,7.73
2022-11-29T18:29:18.147Z,8.03
2022-11-29T18:31:47.559Z,7.57
2022-11-29T18:34:16.327Z,7.73
2022-11-29T18:36:48.193Z,7.70
2022-11-29T18:39:18.929Z,8.57
2022-11-29T18:41:49.474Z,8.10
2022-11-29T18:44:20.126Z,8.00
2022-11-29T18:46:48.846Z,8.03
2022-11-29T18:49:19.052Z,7.67
2022-11-29T18:51:49.721Z,7.30
2022-11-29T18:54:19.434Z,7.43
2022-11-29T18:56:47.673Z,7.40
2022-11-29T18:59:18.118Z,7.73
2022-11-29T19:01:48.689Z,8.20
2022-11-29T19:04:19.595Z,7.63
2022-11-29T19:06:50.227Z,7.07
2022-11-29T19:09:21.932Z,7.53
2022-11-29T19:11:50.852Z,7.97
2022-11-29T19:14:19.702Z,7.73
2022-11-29T19:16:50.274Z,6.60
2022-11-29T19:19:19.671Z,8.40
2022-11-29T19:21:49.245Z,8.33
2022-11-29T19:24:18.828Z,7.83
2022-11-29T19:26:50.870Z,7.67
2022-11-29T19:29:19.053Z,7.43
2022-11-29T19:31:47.240Z,7.67
2022-11-29T19:34:15.919Z,7.73
2022-11-29T19:36:45.472Z,7.60
2022-11-29T19:39:17.828Z,7.27
2022-11-29T19:41:48.166Z,7.10
2022-11-29T19:44:16.986Z,8.00
2022-11-29T19:46:48.582Z,6.70
2022-11-29T19:49:17.446Z,6.00
2022-11-29T19:51:45.590Z,5.60
2022-11-29T19:54:15.506Z,6.27
2022-11-29T19:56:43.856Z,6.60
2022-11-29T19:59:12.229Z,5.70
2022-11-29T20:01:42.405Z,6.30
2022-11-29T20:04:12.712Z,6.27
2022-11-29T20:06:42.791Z,6.27
2022-11-29T20:09:12.046Z,6.60
2022-11-29T20:11:41.505Z,6.00
2022-11-29T20:14:12.410Z,7.03
2022-11-29T20:16:40.524Z,6.73
2022-11-29T20:19:12.389Z,7.23
2022-11-29T20:21:44.378Z,6.80
2022-11-29T20:24:15.116Z,6.80
2022-11-29T20:26:46.661Z,7.03
2022-11-29T20:29:15.792Z,6.90
2022-11-29T20:31:50.233Z,6.83
2022-11-29T20:34:19.938Z,6.33
2022-11-29T20:37:10.670Z,6.87
2022-11-29T20:39:47.037Z,6.37
2022-11-29T20:42:51.038Z,6.77
2022-11-29T20:45:19.858Z,7.63
2022-11-29T20:47:56.804Z,6.53
2022-11-29T20:50:27.505Z,6.37
2022-11-29T20:53:11.524Z,7.40
2022-11-29T20:55:44.853Z,7.53
2022-11-29T20:58:16.012Z,6.43
2022-11-29T21:00:44.147Z,7.43
2022-11-29T21:03:14.930Z,6.17
2022-11-29T21:05:43.455Z,6.83
2022-11-29T21:08:11.791Z,6.10
2022-11-29T21:10:39.927Z,6.30
2022-11-29T21:13:10.983Z,6.67
2022-11-29T21:15:43.423Z,6.30
2022-11-29T21:18:22.413Z,6.47
2022-11-29T21:21:11.217Z,5.77
2022-11-29T21:23:55.815Z,5.33
2022-11-29T21:26:29.281Z,4.77
2022-11-29T21:29:12.460Z,5.60
2022-11-29T21:31:42.834Z,6.57
2022-11-29T21:34:11.082Z,5.10
2022-11-29T21:36:39.958Z,5.53
2022-11-29T21:39:12.207Z,5.90
2022-11-29T21:41:40.324Z,6.43
2022-11-29T21:44:08.806Z,6.20
2022-11-29T21:46:37.445Z,6.20
2022-11-29T21:49:06.959Z,6.47
2022-11-29T21:51:35.214Z,5.63
2022-11-29T21:54:03.565Z,5.40
2022-11-29T21:56:32.111Z,6.03
2022-11-29T21:59:00.176Z,6.07
2022-11-29T22:01:29.336Z,6.47
2022-11-29T22:03:57.470Z,6.60
2022-11-29T22:06:29.179Z,6.03
2022-11-29T22:08:57.326Z,7.63
2022-11-29T22:11:31.948Z,7.73
2022-11-29T22:14:17.981Z,7.43
2022-11-29T22:16:48.719Z,8.00
2022-11-29T22:19:18.781Z,8.23
2022-11-29T22:21:50.272Z,7.93
2022-11-29T22:24:20.218Z,7.47
2022-11-29T22:26:49.457Z,7.07
2022-11-29T22:29:17.929Z,7.93
2022-11-29T22:31:48.143Z,7.37
2022-11-29T22:34:16.545Z,8.73
2022-11-29T22:36:44.695Z,7.33
2022-11-29T22:39:14.559Z,8.17
2022-11-29T22:41:42.751Z,8.33
2022-11-29T22:44:11.146Z,7.60
2022-11-29T22:46:41.326Z,7.50
2022-11-29T22:49:09.515Z,8.13
2022-11-29T22:51:39.286Z,8.00
2022-11-29T22:54:10.400Z,8.13
2022-11-29T22:56:42.594Z,8.57
2022-11-29T22:59:11.081Z,8.33
2022-11-29T23:01:41.348Z,8.03
2022-11-29T23:04:13.114Z,7.93
2022-11-29T23:06:44.493Z,7.53
2022-11-29T23:09:16.559Z,8.60
2022-11-29T23:11:50.926Z,8.03
2022-11-29T23:14:19.733Z,7.70
2022-11-29T23:16:48.073Z,8.03
2022-11-29T23:19:17.232Z,8.77
2022-11-29T23:21:46.150Z,8.73
2022-11-29T23:24:14.704Z,8.90
2022-11-29T23:26:47.419Z,8.53
2022-11-29T23:29:18.090Z,8.47
2022-11-29T23:31:46.569Z,8.30
2022-11-29T23:34:15.250Z,8.00
2022-11-29T23:36:46.912Z,8.70
2022-11-29T23:39:17.894Z,8.20
2022-11-29T23:41:47.361Z,8.93
2022-11-29T23:44:15.397Z,8.23
2022-11-29T23:46:44.065Z,8.63
2022-11-29T23:49:12.174Z,10.33
2022-11-29T23:51:40.289Z,9.43
2022-11-29T23:54:08.654Z,9.90
2022-11-29T23:56:36.741Z,8.57
2022-11-29T23:59:06.523Z,9.30
